Time;durP1;ratioP1;P1;durP2;ratioP2;P2;SDS_P1;SDS_P2;PMS_P1;PMS_P2;Temp;Humidity;BMP_temperature;BMP_pressure;BME280_temperature;BME280_humidity;BME280_pressure;Samples;Min_cycle;Max_cycle;Signal;HPM_P1;HPM_P2
2023/08/07 00:02:08;;;;;;;7.03;4.10;;;16.40;99.90;;;;;;4996984;28;20045;-73
2023/08/07 00:04:54;;;;;;;7.28;4.32;;;16.50;99.90;;;;;;4999237;28;20056;-74
2023/08/07 00:07:40;;;;;;;7.78;5.00;;;16.50;99.90;;;;;;4998675;28;20655;-73
2023/08/07 00:10:26;;;;;;;9.18;5.43;;;16.50;99.90;;;;;;5004009;28;20037;-73
2023/08/07 00:13:12;;;;;;;8.15;5.07;;;16.20;99.90;;;;;;5031127;28;20037;-74
2023/08/07 00:15:58;;;;;;;9.20;4.95;;;16.20;99.90;;;;;;5015825;28;20077;-73
2023/08/07 00:18:44;;;;;;;10.77;5.40;;;16.40;99.90;;;;;;5003012;28;20154;-72
2023/08/07 00:21:30;;;;;;;7.47;4.97;;;16.30;99.90;;;;;;5016645;28;20076;-73
2023/08/07 00:24:16;;;;;;;7.05;4.47;;;16.20;99.90;;;;;;5001023;28;20405;-73
2023/08/07 00:27:02;;;;;;;11.18;5.32;;;16.30;99.90;;;;;;4992906;28;20070;-73
2023/08/07 00:29:48;;;;;;;10.38;5.82;;;16.20;99.90;;;;;;4994762;28;20074;-73
2023/08/07 00:32:34;;;;;;;11.82;5.25;;;16.10;99.90;;;;;;5003049;28;20061;-73
2023/08/07 00:35:20;;;;;;;12.50;5.65;;;16.20;99.90;;;;;;5009804;28;20041;-73
2023/08/07 00:38:06;;;;;;;8.98;5.43;;;16.10;99.90;;;;;;5012629;28;20041;-73
2023/08/07 00:40:52;;;;;;;10.52;5.32;;;16.10;99.90;;;;;;5010160;28;20048;-76
2023/08/07 00:43:38;;;;;;;10.63;5.28;;;16.10;99.90;;;;;;5001177;28;20517;-74
2023/08/07 00:46:24;;;;;;;10.00;5.68;;;16.10;99.90;;;;;;5025128;28;20091;-76
2023/08/07 00:49:11;;;;;;;8.40;5.63;;;16.10;99.90;;;;;;5018579;28;20123;-76
2023/08/07 00:51:57;;;;;;;9.20;5.70;;;16.00;99.90;;;;;;5021047;28;20049;-75
2023/08/07 00:54:43;;;;;;;9.48;6.05;;;16.10;99.90;;;;;;4988285;28;20838;-74
2023/08/07 00:57:29;;;;;;;9.95;5.78;;;16.00;99.90;;;;;;5016253;28;20041;-74
2023/08/07 01:00:16;;;;;;;9.38;5.45;;;15.90;99.90;;;;;;5016671;28;20127;-74
2023/08/07 01:03:04;;;;;;;6.93;5.00;;;15.70;99.90;;;;;;4998460;28;20060;-75
2023/08/07 01:05:50;;;;;;;6.10;4.18;;;15.70;99.90;;;;;;4991546;28;20041;-74
2023/08/07 01:08:36;;;;;;;5.55;4.22;;;15.60;99.90;;;;;;5003468;28;20631;-74
2023/08/07 01:11:34;;;;;;;5.60;3.35;;;15.50;99.90;;;;;;5005262;28;20090;-75
2023/08/07 01:14:33;;;;;;;;;;;15.40;99.90;;;;;;5017792;28;20049;-71
2023/08/07 01:17:20;;;;;;;6.88;3.67;;;15.30;99.90;;;;;;5030523;28;19947;-73
2023/08/07 01:20:06;;;;;;;7.05;3.60;;;15.30;99.90;;;;;;5017268;28;20053;-72
2023/08/07 01:22:52;;;;;;;8.20;3.38;;;15.30;99.90;;;;;;5000605;28;20453;-73
2023/08/07 01:25:38;;;;;;;6.10;3.78;;;15.30;99.90;;;;;;5000910;28;20072;-73
2023/08/07 01:28:33;;;;;;;4.72;4.00;;;15.30;99.90;;;;;;5002669;28;20067;-73
2023/08/07 01:31:19;;;;;;;5.90;3.55;;;15.20;99.90;;;;;;5016258;28;20759;-73
2023/08/07 01:34:08;;;;;;;7.15;3.63;;;15.30;99.90;;;;;;5016079;28;20041;-73
2023/08/07 01:36:54;;;;;;;5.15;3.60;;;15.30;99.90;;;;;;5015400;28;20049;-73
2023/08/07 01:39:40;;;;;;;5.72;4.18;;;15.40;99.90;;;;;;5002240;28;20041;-73
2023/08/07 01:42:26;;;;;;;6.13;3.97;;;15.30;99.90;;;;;;5002838;28;20108;-73
2023/08/07 01:45:12;;;;;;;7.65;4.65;;;15.30;99.90;;;;;;5012141;28;20053;-73
2023/08/07 01:47:59;;;;;;;9.23;5.05;;;15.30;99.90;;;;;;5002960;28;20038;-74
2023/08/07 01:50:45;;;;;;;8.63;4.88;;;15.30;99.90;;;;;;5016553;28;20390;-73
2023/08/07 01:53:31;;;;;;;10.07;5.75;;;15.30;99.90;;;;;;5016842;28;20040;-73
2023/08/07 01:56:17;;;;;;;10.80;5.57;;;15.30;99.90;;;;;;5015692;28;20042;-73
2023/08/07 01:59:03;;;;;;;10.05;5.35;;;15.30;99.90;;;;;;5017089;28;20124;-73
2023/08/07 02:01:49;;;;;;;6.38;5.35;;;15.30;99.90;;;;;;5002301;28;20184;-73
2023/08/07 02:04:35;;;;;;;8.57;5.60;;;15.30;99.90;;;;;;5015932;28;20046;-73
2023/08/07 02:07:21;;;;;;;9.27;5.72;;;15.30;99.90;;;;;;5005708;28;20080;-73
2023/08/07 02:10:07;;;;;;;9.88;6.30;;;15.30;99.90;;;;;;5019525;28;20544;-73
2023/08/07 02:12:53;;;;;;;9.90;5.90;;;15.30;99.90;;;;;;5018876;28;20033;-74
2023/08/07 02:15:39;;;;;;;7.80;5.28;;;15.30;99.90;;;;;;5034398;28;20045;-73
2023/08/07 02:18:25;;;;;;;7.53;5.80;;;15.30;99.90;;;;;;4994704;28;20054;-73
2023/08/07 02:21:11;;;;;;;9.95;6.20;;;15.30;99.90;;;;;;5018221;28;20394;-74
2023/08/07 02:23:57;;;;;;;7.93;5.53;;;15.30;99.90;;;;;;5019719;28;20053;-74
2023/08/07 02:26:43;;;;;;;9.75;6.50;;;15.40;99.90;;;;;;5018062;28;20116;-74
2023/08/07 02:29:33;;;;;;;8.63;6.35;;;15.30;99.90;;;;;;5006412;28;20049;-73
2023/08/07 02:32:19;;;;;;;10.00;6.55;;;15.20;99.90;;;;;;5007330;28;20180;-73
2023/08/07 02:35:06;;;;;;;8.50;6.35;;;15.30;99.90;;;;;;4999446;28;20676;-74
2023/08/07 02:37:52;;;;;;;10.82;6.72;;;15.30;99.90;;;;;;5006583;28;20045;-74
2023/08/07 02:40:37;;;;;;;12.55;7.20;;;15.20;99.90;;;;;;5026343;28;20076;-73
2023/08/07 02:43:23;;;;;;;9.93;7.03;;;15.30;99.90;;;;;;5015764;28;20632;-73
2023/08/07 02:46:09;;;;;;;14.90;7.00;;;15.30;99.90;;;;;;4990614;28;20049;-73
2023/08/07 02:48:56;;;;;;;9.30;7.60;;;15.30;99.90;;;;;;4993032;28;20069;-73
2023/08/07 02:51:42;;;;;;;10.85;7.70;;;15.30;99.90;;;;;;5031224;28;20140;-73
2023/08/07 02:54:28;;;;;;;10.35;8.40;;;15.30;99.90;;;;;;5019196;28;20505;-74
2023/08/07 02:57:14;;;;;;;12.25;9.50;;;15.40;99.90;;;;;;5019756;28;20084;-74
2023/08/07 03:00:00;;;;;;;13.48;8.88;;;15.30;99.90;;;;;;4992687;28;20128;-74
2023/08/07 03:02:46;;;;;;;12.98;10.60;;;15.30;99.90;;;;;;5018562;28;20770;-73
2023/08/07 03:05:35;;;;;;;14.38;11.63;;;15.30;99.90;;;;;;5016283;28;20041;-74
2023/08/07 03:08:21;;;;;;;15.05;11.27;;;15.30;99.90;;;;;;5005530;28;20037;-73
2023/08/07 03:11:07;;;;;;;14.85;11.15;;;15.30;99.90;;;;;;5017557;28;20048;-73
2023/08/07 03:13:53;;;;;;;12.20;10.80;;;15.30;99.90;;;;;;5006816;28;20037;-73
2023/08/07 03:16:39;;;;;;;13.52;10.95;;;15.30;99.90;;;;;;5004203;28;20552;-74
2023/08/07 03:19:25;;;;;;;16.50;11.93;;;15.20;99.90;;;;;;4990888;28;20049;-73
2023/08/07 03:22:11;;;;;;;15.70;11.60;;;15.20;99.90;;;;;;5018186;28;20041;-73
2023/08/07 03:24:57;;;;;;;14.30;11.95;;;15.20;99.90;;;;;;5018426;28;20121;-74
2023/08/07 03:27:43;;;;;;;14.57;11.25;;;15.20;99.90;;;;;;4980888;28;20057;-73
2023/08/07 03:30:29;;;;;;;13.80;10.55;;;15.20;99.90;;;;;;5020498;28;20051;-73
2023/08/07 03:33:14;;;;;;;14.15;10.65;;;15.20;99.90;;;;;;5018118;28;20095;-73
2023/08/07 03:36:00;;;;;;;11.23;9.27;;;15.20;99.90;;;;;;4996142;28;20160;-73
2023/08/07 03:38:46;;;;;;;13.82;8.98;;;15.20;99.90;;;;;;5000612;28;20101;-73
2023/08/07 03:41:32;;;;;;;13.93;8.23;;;15.10;99.90;;;;;;5007931;28;20045;-72
2023/08/07 03:44:18;;;;;;;12.55;8.23;;;15.10;99.90;;;;;;4987991;28;20445;-72
2023/08/07 03:47:04;;;;;;;10.77;8.27;;;15.10;99.90;;;;;;5003775;28;20045;-74
2023/08/07 03:49:52;;;;;;;11.20;7.80;;;15.20;99.90;;;;;;5009898;28;20045;-73
2023/08/07 03:52:38;;;;;;;10.75;8.80;;;15.10;99.90;;;;;;5016657;28;20037;-73
2023/08/07 03:55:24;;;;;;;12.70;8.90;;;15.10;99.90;;;;;;5004381;28;20496;-73
2023/08/07 03:58:10;;;;;;;11.95;7.97;;;15.00;99.90;;;;;;5019396;28;20051;-73
2023/08/07 04:00:57;;;;;;;13.45;8.10;;;15.00;99.90;;;;;;5019346;28;20046;-73
2023/08/07 04:03:43;;;;;;;11.82;8.57;;;15.10;99.90;;;;;;5032649;28;20120;-73
2023/08/07 04:06:29;;;;;;;9.15;7.75;;;15.00;99.90;;;;;;5031574;28;20565;-73
2023/08/07 04:09:16;;;;;;;11.27;8.18;;;15.00;99.90;;;;;;5012400;28;20048;-73
2023/08/07 04:12:03;;;;;;;12.57;7.90;;;15.00;99.90;;;;;;5019238;28;20045;-74
2023/08/07 04:14:49;;;;;;;12.10;7.63;;;15.00;99.90;;;;;;4985680;28;20780;-74
2023/08/07 04:17:35;;;;;;;8.88;6.35;;;15.00;99.90;;;;;;5011112;28;20056;-74
2023/08/07 04:20:23;;;;;;;12.90;7.60;;;15.10;99.90;;;;;;4998572;28;20041;-74
2023/08/07 04:23:09;;;;;;;10.68;8.05;;;15.00;99.90;;;;;;5003523;28;20604;-74
2023/08/07 04:25:55;;;;;;;10.20;7.10;;;15.00;99.90;;;;;;5018163;28;20049;-73
2023/08/07 04:28:42;;;;;;;10.13;6.90;;;15.10;99.90;;;;;;5016984;28;20037;-73
2023/08/07 04:31:31;;;;;;;13.10;7.18;;;15.00;99.90;;;;;;5018487;28;20072;-74
2023/08/07 04:34:16;;;;;;;;;;;15.00;99.90;;;;;;5018907;28;20037;-74
2023/08/07 04:37:02;;;;;;;12.65;6.35;;;15.00;99.90;;;;;;5003514;28;19948;-74
2023/08/07 04:39:48;;;;;;;13.20;7.70;;;15.10;99.90;;;;;;5001415;28;20049;-74
2023/08/07 04:42:34;;;;;;;10.88;7.55;;;15.10;99.90;;;;;;5030460;28;20038;-73
2023/08/07 04:45:20;;;;;;;10.48;7.53;;;15.20;99.90;;;;;;5001745;28;20065;-73
2023/08/07 04:48:08;;;;;;;11.25;7.57;;;15.10;99.90;;;;;;4995735;28;20414;-73
2023/08/07 04:50:54;;;;;;;10.38;7.43;;;15.00;99.90;;;;;;5003654;28;20038;-74
2023/08/07 04:53:40;;;;;;;10.13;6.70;;;15.00;99.90;;;;;;5012395;28;20100;-73
2023/08/07 04:56:26;;;;;;;12.32;7.63;;;15.00;99.90;;;;;;5009134;28;20041;-74
2023/08/07 04:59:12;;;;;;;9.27;6.60;;;15.00;99.90;;;;;;5016249;28;20509;-73
2023/08/07 05:01:58;;;;;;;11.35;6.90;;;15.10;99.90;;;;;;5012510;28;20049;-73
2023/08/07 05:04:45;;;;;;;12.77;7.15;;;15.10;99.90;;;;;;5013792;28;20144;-73
2023/08/07 05:07:34;;;;;;;16.35;7.07;;;15.10;99.90;;;;;;5000492;28;20041;-73
2023/08/07 05:10:20;;;;;;;14.98;6.90;;;15.10;99.90;;;;;;5003071;28;20063;-73
2023/08/07 05:13:06;;;;;;;13.35;6.88;;;15.00;99.90;;;;;;5003877;28;20219;-73
2023/08/07 05:15:51;;;;;;;9.93;6.32;;;15.00;99.90;;;;;;5030653;28;20033;-73
2023/08/07 05:18:37;;;;;;;10.52;6.82;;;15.10;99.90;;;;;;5004741;28;20080;-73
2023/08/07 05:21:23;;;;;;;11.40;7.53;;;15.00;99.90;;;;;;5012276;28;20064;-73
2023/08/07 05:24:12;;;;;;;12.70;7.38;;;15.00;99.90;;;;;;4996000;28;20061;-73
2023/08/07 05:26:58;;;;;;;16.23;7.80;;;15.00;99.90;;;;;;4990120;28;20049;-73
2023/08/07 05:29:44;;;;;;;13.48;7.50;;;15.00;99.90;;;;;;5002559;28;20049;-73
2023/08/07 05:32:32;;;;;;;11.38;7.45;;;15.10;99.90;;;;;;5017397;28;20033;-73
2023/08/07 05:35:18;;;;;;;11.05;7.25;;;15.10;99.90;;;;;;4989562;28;20497;-73
2023/08/07 05:38:04;;;;;;;8.25;6.72;;;15.10;99.90;;;;;;5029623;28;20072;-74
2023/08/07 05:40:50;;;;;;;10.15;7.45;;;15.10;99.90;;;;;;5018035;28;20052;-74
2023/08/07 05:43:38;;;;;;;11.30;7.97;;;15.20;99.90;;;;;;5006801;28;20398;-73
2023/08/07 05:46:24;;;;;;;12.43;8.25;;;15.10;99.90;;;;;;5000794;28;20041;-73
2023/08/07 05:49:10;;;;;;;12.80;9.00;;;15.20;99.90;;;;;;4993860;28;20073;-74
2023/08/07 05:51:56;;;;;;;10.63;7.38;;;15.20;99.90;;;;;;5019617;28;20346;-73
2023/08/07 05:54:42;;;;;;;12.43;7.40;;;15.30;99.90;;;;;;5019179;28;20802;-73
2023/08/07 05:57:28;;;;;;;12.65;8.50;;;15.30;99.90;;;;;;5020678;28;20037;-73
2023/08/07 06:00:17;;;;;;;15.00;10.40;;;15.30;99.90;;;;;;5035014;28;20535;-75
2023/08/07 06:03:04;;;;;;;21.42;11.05;;;15.20;99.90;;;;;;5022976;28;20037;-74
2023/08/07 06:05:50;;;;;;;15.23;10.80;;;15.00;99.90;;;;;;5006322;28;20077;-74
2023/08/07 06:08:36;;;;;;;16.30;10.07;;;15.00;99.90;;;;;;5018413;28;20037;-75
2023/08/07 06:11:22;;;;;;;13.75;10.48;;;14.90;99.90;;;;;;5001912;28;20432;-76
2023/08/07 06:14:08;;;;;;;15.13;10.18;;;14.80;99.90;;;;;;5005563;28;20405;-75
2023/08/07 06:16:54;;;;;;;16.40;10.80;;;14.70;99.90;;;;;;5021091;28;20390;-75
2023/08/07 06:19:40;;;;;;;13.32;10.30;;;14.80;99.90;;;;;;5002699;28;20548;-75
2023/08/07 06:22:26;;;;;;;19.08;11.32;;;14.90;99.90;;;;;;4989801;28;20042;-76
2023/08/07 06:25:11;;;;;;;13.40;11.35;;;14.80;99.90;;;;;;4989787;28;20046;-76
2023/08/07 06:27:57;;;;;;;11.73;10.45;;;14.90;99.90;;;;;;5005883;28;20132;-76
2023/08/07 06:30:43;;;;;;;14.93;11.82;;;14.90;99.90;;;;;;4989991;28;20038;-76
2023/08/07 06:33:30;;;;;;;17.20;11.48;;;14.90;99.90;;;;;;4987324;28;20053;-76
2023/08/07 06:36:16;;;;;;;12.10;9.85;;;14.90;99.90;;;;;;5025304;28;20041;-76
2023/08/07 06:39:03;;;;;;;8.38;5.15;;;15.00;99.90;;;;;;5011094;28;20053;-75
2023/08/07 06:41:49;;;;;;;4.80;2.70;;;14.80;99.90;;;;;;5024851;28;20049;-75
2023/08/07 06:44:35;;;;;;;3.40;1.90;;;14.60;99.90;;;;;;5008693;28;20042;-75
2023/08/07 06:47:21;;;;;;;4.13;1.65;;;14.50;99.90;;;;;;5020657;28;20068;-76
2023/08/07 06:50:08;;;;;;;6.38;1.88;;;14.30;99.90;;;;;;5021762;28;20048;-76
2023/08/07 06:52:54;;;;;;;3.05;2.15;;;14.30;99.90;;;;;;5003070;28;20042;-76
2023/08/07 06:55:43;;;;;;;4.00;1.90;;;14.40;99.90;;;;;;5014913;28;20366;-76
2023/08/07 06:58:29;;;;;;;2.97;1.50;;;14.60;99.90;;;;;;5006578;28;20045;-76
2023/08/07 07:01:15;;;;;;;5.07;1.80;;;14.60;99.90;;;;;;5016841;28;20073;-76
2023/08/07 07:04:01;;;;;;;3.05;1.60;;;14.70;99.90;;;;;;5021094;28;20114;-76
2023/08/07 07:06:47;;;;;;;6.72;1.90;;;14.80;99.90;;;;;;5020743;28;20099;-76
2023/08/07 07:09:33;;;;;;;3.70;1.77;;;14.70;99.90;;;;;;5006645;28;20481;-75
2023/08/07 07:12:19;;;;;;;4.15;2.20;;;14.70;99.90;;;;;;5007451;28;20190;-75
2023/08/07 07:15:06;;;;;;;9.48;3.63;;;14.80;99.90;;;;;;5020331;28;20045;-75
2023/08/07 07:17:52;;;;;;;7.07;4.38;;;14.90;99.90;;;;;;5028497;28;20037;-75
2023/08/07 07:20:38;;;;;;;9.80;4.28;;;15.00;99.90;;;;;;5018684;28;20508;-75
2023/08/07 07:23:24;;;;;;;8.00;5.65;;;15.00;99.90;;;;;;5011024;28;20049;-75
2023/08/07 07:26:10;;;;;;;10.35;5.75;;;15.00;99.90;;;;;;5019206;28;20401;-75
2023/08/07 07:28:56;;;;;;;10.05;6.80;;;15.10;99.90;;;;;;5020257;28;20117;-75
2023/08/07 07:31:42;;;;;;;8.40;6.05;;;15.10;99.90;;;;;;5018246;28;20501;-75
2023/08/07 07:34:28;;;;;;;15.73;6.80;;;15.10;99.90;;;;;;5017855;28;20060;-75
2023/08/07 07:37:16;;;;;;;6.97;4.82;;;15.10;99.90;;;;;;5025746;28;20128;-75
2023/08/07 07:40:02;;;;;;;7.07;5.38;;;15.10;99.90;;;;;;5005296;28;20183;-75
2023/08/07 07:42:48;;;;;;;7.65;4.97;;;15.10;99.90;;;;;;4989056;28;20045;-74
2023/08/07 07:45:35;;;;;;;9.98;5.50;;;15.10;99.90;;;;;;5019675;28;20053;-74
2023/08/07 07:48:21;;;;;;;7.70;4.55;;;15.20;99.90;;;;;;5017552;28;20052;-74
2023/08/07 07:51:07;;;;;;;7.38;4.35;;;15.20;99.90;;;;;;5012131;28;20040;-75
2023/08/07 07:53:53;;;;;;;5.03;3.30;;;15.30;99.90;;;;;;5014089;28;20056;-75
2023/08/07 07:56:39;;;;;;;7.65;4.05;;;15.30;99.90;;;;;;5005386;28;20041;-75
2023/08/07 07:59:25;;;;;;;5.68;3.70;;;15.40;99.90;;;;;;5018292;28;20037;-74
2023/08/07 08:02:11;;;;;;;6.72;3.63;;;15.40;99.90;;;;;;5018433;28;20037;-74
2023/08/07 08:04:57;;;;;;;7.68;3.92;;;15.40;99.90;;;;;;5003897;28;20053;-74
2023/08/07 08:07:43;;;;;;;6.57;3.42;;;15.50;99.90;;;;;;5005554;28;20132;-77
2023/08/07 08:10:29;;;;;;;5.60;2.75;;;15.60;99.90;;;;;;5018873;28;20722;-77
2023/08/07 08:13:15;;;;;;;7.82;3.28;;;15.60;99.90;;;;;;5006092;28;20101;-77
2023/08/07 08:16:01;;;;;;;5.97;2.70;;;15.70;99.90;;;;;;5015916;28;20049;-77
2023/08/07 08:18:47;;;;;;;4.88;2.67;;;15.70;99.90;;;;;;4999116;28;20133;-77
2023/08/07 08:21:33;;;;;;;5.53;3.28;;;15.70;99.90;;;;;;5019429;28;20041;-77
2023/08/07 08:24:19;;;;;;;6.00;2.92;;;15.80;99.90;;;;;;5013169;28;20042;-77
2023/08/07 08:27:05;;;;;;;6.63;2.75;;;15.80;99.90;;;;;;5003667;28;20037;-77
2023/08/07 08:29:51;;;;;;;4.13;2.83;;;15.80;99.90;;;;;;5004356;28;20036;-77
2023/08/07 08:32:38;;;;;;;5.30;3.35;;;15.90;99.90;;;;;;5004246;28;20037;-77
2023/08/07 08:35:25;;;;;;;7.05;2.85;;;15.90;99.90;;;;;;5006682;28;20123;-77
2023/08/07 08:38:11;;;;;;;5.10;2.40;;;15.90;99.90;;;;;;5005858;28;20052;-76
2023/08/07 08:40:57;;;;;;;7.47;2.92;;;16.00;99.90;;;;;;4998141;28;20056;-77
2023/08/07 08:43:43;;;;;;;4.07;2.35;;;16.10;99.90;;;;;;4986856;28;20045;-76
2023/08/07 08:46:32;;;;;;;6.75;2.92;;;16.20;99.90;;;;;;4997138;28;20049;-77
2023/08/07 08:49:20;;;;;;;5.82;2.53;;;16.20;99.90;;;;;;4986379;28;20033;-77
2023/08/07 08:52:06;;;;;;;;;;;16.20;99.90;;;;;;4993370;28;20076;-77
2023/08/07 08:54:52;;;;;;;6.05;2.70;;;16.20;99.90;;;;;;5013851;28;19920;-77
2023/08/07 08:57:39;;;;;;;6.22;2.45;;;16.30;99.90;;;;;;5002973;28;20064;-77
2023/08/07 09:00:25;;;;;;;4.43;2.80;;;16.40;99.90;;;;;;5003080;28;20119;-76
2023/08/07 09:03:12;;;;;;;6.30;2.13;;;16.50;99.90;;;;;;4988943;28;20073;-76
2023/08/07 09:05:59;;;;;;;5.82;2.53;;;16.50;99.90;;;;;;4989144;28;20045;-77
2023/08/07 09:08:47;;;;;;;4.95;2.20;;;16.50;99.90;;;;;;5019082;28;20694;-78
2023/08/07 09:11:33;;;;;;;7.65;2.20;;;16.60;99.90;;;;;;4986485;28;20049;-78
2023/08/07 09:14:24;;;;;;;5.45;2.08;;;16.60;99.90;;;;;;4986598;28;20045;-78
2023/08/07 09:17:12;;;;;;;2.85;1.67;;;16.50;99.90;;;;;;5016114;28;20036;-77
2023/08/07 09:19:59;;;;;;;4.78;2.17;;;16.50;99.90;;;;;;5006301;28;20057;-78
2023/08/07 09:22:46;;;;;;;8.52;1.90;;;16.60;99.90;;;;;;5000058;28;20045;-77
2023/08/07 09:25:33;;;;;;;5.28;1.88;;;16.70;99.90;;;;;;5003022;28;20050;-77
2023/08/07 09:28:19;;;;;;;4.88;1.80;;;16.80;99.90;;;;;;5001990;28;20037;-78
2023/08/07 09:31:09;;;;;;;5.63;1.67;;;16.90;99.90;;;;;;5000799;28;20048;-78
2023/08/07 09:33:55;;;;;;;4.07;1.70;;;16.80;99.90;;;;;;5002990;28;20049;-77
2023/08/07 09:36:41;;;;;;;6.05;2.20;;;16.80;99.90;;;;;;5015030;28;20363;-77
2023/08/07 09:39:27;;;;;;;8.10;2.70;;;16.60;99.90;;;;;;4995685;28;20044;-78
2023/08/07 09:42:17;;;;;;;5.72;2.17;;;16.40;99.90;;;;;;4996710;28;20714;-78
2023/08/07 09:45:03;;;;;;;4.85;2.80;;;16.00;99.90;;;;;;5002039;28;20057;-79
2023/08/07 09:48:06;;;;;;;4.53;2.88;;;15.80;99.90;;;;;;4997389;28;20375;-79
2023/08/07 09:50:52;;;;;;;7.40;3.10;;;15.80;99.90;;;;;;4985645;28;20673;-79
2023/08/07 09:53:38;;;;;;;6.88;3.35;;;15.70;99.90;;;;;;5014449;28;20347;-78
2023/08/07 09:56:24;;;;;;;4.97;2.17;;;15.40;99.90;;;;;;5007238;28;20046;-79
2023/08/07 09:59:11;;;;;;;6.20;2.35;;;15.30;99.90;;;;;;5022168;28;20041;-79
2023/08/07 10:01:59;;;;;;;3.88;2.00;;;15.30;99.90;;;;;;5005580;28;20042;-79
2023/08/07 10:04:45;;;;;;;6.80;1.80;;;15.30;99.90;;;;;;5016046;28;20048;-79
2023/08/07 10:07:32;;;;;;;13.07;2.97;;;15.40;99.90;;;;;;5002114;28;20069;-79
2023/08/07 10:10:18;;;;;;;8.57;2.47;;;15.40;99.90;;;;;;5016636;28;20053;-79
2023/08/07 10:13:04;;;;;;;8.82;2.28;;;15.40;99.90;;;;;;5016130;28;20038;-78
2023/08/07 10:15:50;;;;;;;6.55;2.60;;;15.40;99.90;;;;;;5015926;28;20034;-79
2023/08/07 10:18:37;;;;;;;6.55;2.40;;;15.40;99.90;;;;;;5003380;28;20074;-79
2023/08/07 10:21:25;;;;;;;12.75;3.40;;;15.50;99.90;;;;;;4989657;28;20037;-79
2023/08/07 10:24:11;;;;;;;12.57;2.83;;;15.70;99.90;;;;;;5002035;28;20073;-78
2023/08/07 10:26:57;;;;;;;12.15;2.80;;;16.00;99.90;;;;;;4969623;28;20410;-78
2023/08/07 10:29:43;;;;;;;9.20;2.80;;;15.90;99.90;;;;;;4981513;28;20031;-78
2023/08/07 10:32:29;;;;;;;11.10;2.92;;;15.90;99.90;;;;;;4995174;28;20042;-78
2023/08/07 10:35:25;;;;;;;8.73;2.65;;;16.10;99.90;;;;;;4984012;28;20137;-79
2023/08/07 10:38:11;;;;;;;9.55;2.58;;;16.40;99.90;;;;;;5012536;28;20042;-78
2023/08/07 10:41:08;;;;;;;8.05;2.50;;;16.60;99.90;;;;;;4999990;28;20044;-78
2023/08/07 10:43:55;;;;;;;11.20;3.17;;;16.50;99.90;;;;;;5000265;28;20042;-78
2023/08/07 10:46:55;;;;;;;6.07;2.75;;;16.60;99.90;;;;;;5014146;28;20378;-77
2023/08/07 10:49:44;;;;;;;10.90;3.05;;;16.60;99.90;;;;;;4998837;28;20034;-74
2023/08/07 10:52:30;;;;;;;10.55;2.90;;;16.70;99.90;;;;;;4993587;28;20093;-74
2023/08/07 10:55:17;;;;;;;11.02;2.90;;;16.70;99.90;;;;;;4997913;28;20135;-74
2023/08/07 10:58:03;;;;;;;7.85;3.15;;;16.60;99.90;;;;;;5013181;28;20389;-74
2023/08/07 11:00:52;;;;;;;10.30;4.32;;;16.60;99.90;;;;;;5013083;28;20053;-73
2023/08/07 11:03:42;;;;;;;10.10;3.25;;;16.60;99.90;;;;;;5000588;28;20069;-74
2023/08/07 11:06:33;;;;;;;8.10;2.30;;;16.40;99.90;;;;;;5011766;28;20053;-77
2023/08/07 11:09:19;;;;;;;5.47;2.20;;;16.30;99.90;;;;;;5000509;28;20033;-74
2023/08/07 11:12:05;;;;;;;9.00;3.00;;;16.30;99.90;;;;;;5012374;28;20038;-74
2023/08/07 11:14:52;;;;;;;7.25;2.70;;;16.20;99.90;;;;;;5013168;28;20037;-74
2023/08/07 11:17:39;;;;;;;9.05;2.88;;;16.20;99.90;;;;;;5012552;28;20065;-75
2023/08/07 11:20:25;;;;;;;9.35;2.45;;;16.20;99.90;;;;;;5018666;28;20048;-75
2023/08/07 11:23:11;;;;;;;7.35;3.00;;;16.10;99.90;;;;;;5029570;28;20071;-74
2023/08/07 11:25:57;;;;;;;7.25;2.20;;;15.80;99.90;;;;;;5019941;28;20045;-74
2023/08/07 11:28:43;;;;;;;8.35;2.28;;;15.50;99.90;;;;;;5004796;28;20096;-73
2023/08/07 11:31:29;;;;;;;7.55;2.45;;;15.60;99.90;;;;;;5006782;28;20127;-74
2023/08/07 11:34:17;;;;;;;5.07;2.38;;;15.80;99.90;;;;;;4999283;28;20475;-73
2023/08/07 11:37:03;;;;;;;6.32;2.08;;;16.20;99.90;;;;;;4990831;28;20045;-74
2023/08/07 11:39:49;;;;;;;9.55;2.13;;;16.50;99.90;;;;;;5019562;28;20049;-73
2023/08/07 11:42:35;;;;;;;7.32;2.00;;;16.70;99.90;;;;;;5004690;28;20785;-72
2023/08/07 11:45:21;;;;;;;6.97;2.05;;;16.60;99.90;;;;;;5017700;28;20048;-72
2023/08/07 11:48:07;;;;;;;6.18;1.75;;;16.40;99.90;;;;;;5000107;28;20406;-72
2023/08/07 11:50:55;;;;;;;5.90;1.92;;;16.30;99.90;;;;;;4984380;28;20050;-72
2023/08/07 11:53:43;;;;;;;6.50;2.55;;;16.20;99.90;;;;;;5010596;28;20041;-73
2023/08/07 11:56:29;;;;;;;8.05;1.90;;;16.10;99.90;;;;;;5003208;28;20045;-73
2023/08/07 11:59:17;;;;;;;6.75;2.00;;;15.90;99.90;;;;;;5004631;28;20442;-72
2023/08/07 12:02:11;;;;;;;6.50;2.40;;;15.70;99.90;;;;;;4992393;28;20045;-72
2023/08/07 12:04:58;;;;;;;9.23;1.90;;;15.70;99.90;;;;;;5016088;28;20049;-72
2023/08/07 12:07:44;;;;;;;7.07;1.92;;;15.70;99.90;;;;;;4986745;28;20125;-72
2023/08/07 12:10:30;;;;;;;7.00;2.00;;;15.70;99.90;;;;;;4971618;28;20038;-73
2023/08/07 12:13:19;;;;;;;6.03;1.98;;;15.70;99.90;;;;;;4986644;28;20041;-72
2023/08/07 12:16:05;;;;;;;7.50;2.10;;;15.80;99.90;;;;;;5033814;28;20041;-72
2023/08/07 12:18:51;;;;;;;7.00;2.17;;;16.00;99.90;;;;;;5003887;28;20061;-72
2023/08/07 12:21:39;;;;;;;5.80;1.60;;;16.40;99.90;;;;;;5002825;28;20049;-72
2023/08/07 12:24:25;;;;;;;11.77;2.20;;;16.70;99.90;;;;;;5011905;28;20052;-73
2023/08/07 12:27:11;;;;;;;8.30;2.00;;;16.90;99.90;;;;;;5027557;28;20044;-72
2023/08/07 12:29:58;;;;;;;5.80;2.40;;;16.80;99.90;;;;;;5009588;28;20501;-73
2023/08/07 12:32:44;;;;;;;9.25;2.08;;;16.60;99.90;;;;;;5016449;28;20073;-72
2023/08/07 12:35:31;;;;;;;11.57;2.63;;;16.70;99.90;;;;;;5015557;28;20044;-73
2023/08/07 12:38:17;;;;;;;7.35;2.05;;;16.80;99.90;;;;;;5003705;28;20366;-72
2023/08/07 12:41:03;;;;;;;6.28;2.63;;;16.60;99.90;;;;;;5010989;28;20044;-73
2023/08/07 12:43:49;;;;;;;6.20;1.60;;;16.50;99.90;;;;;;4974927;28;20049;-72
2023/08/07 12:46:37;;;;;;;6.15;1.73;;;16.60;99.90;;;;;;5004444;28;20041;-73
2023/08/07 12:49:26;;;;;;;5.72;1.75;;;17.20;99.90;;;;;;5003306;28;20386;-73
2023/08/07 12:52:14;;;;;;;4.90;1.42;;;17.50;99.90;;;;;;5016200;28;20103;-73
2023/08/07 12:55:00;;;;;;;4.90;1.73;;;17.60;99.90;;;;;;5016200;28;20057;-72
2023/08/07 12:57:46;;;;;;;6.55;1.75;;;17.60;99.90;;;;;;5016289;28;20351;-73
2023/08/07 13:00:33;;;;;;;6.07;1.67;;;17.30;99.90;;;;;;5003220;28;20045;-73
2023/08/07 13:03:20;;;;;;;9.07;1.60;;;17.10;99.90;;;;;;4991914;28;20098;-73
2023/08/07 13:06:08;;;;;;;4.68;1.20;;;16.90;99.90;;;;;;5014194;28;20386;-73
2023/08/07 13:09:00;;;;;;;3.75;1.00;;;17.10;99.90;;;;;;5015788;28;20047;-73
2023/08/07 13:11:48;;;;;;;4.30;0.93;;;17.10;99.90;;;;;;5016747;28;20080;-74
2023/08/07 13:14:35;;;;;;;5.00;1.00;;;17.20;99.90;;;;;;5015688;28;20053;-73
2023/08/07 13:17:23;;;;;;;3.35;1.25;;;17.40;99.90;;;;;;4989907;28;20042;-73
2023/08/07 13:20:12;;;;;;;;;;;17.60;99.90;;;;;;5003432;28;20103;-72
2023/08/07 13:22:58;;;;;;;4.88;1.42;;;17.50;99.90;;;;;;5016041;28;19924;-73
2023/08/07 13:25:44;;;;;;;4.40;1.20;;;17.70;99.90;;;;;;5015320;28;20751;-74
2023/08/07 13:28:31;;;;;;;5.35;1.15;;;17.50;99.90;;;;;;5002535;28;20045;-74
2023/08/07 13:31:17;;;;;;;6.05;2.22;;;17.40;99.90;;;;;;5018022;28;20037;-74
2023/08/07 13:34:08;;;;;;;6.40;1.45;;;17.40;99.90;;;;;;4989528;28;20121;-75
2023/08/07 13:36:54;;;;;;;3.83;1.30;;;17.40;99.90;;;;;;4993946;28;20029;-74
2023/08/07 13:39:40;;;;;;;4.20;1.42;;;17.50;99.90;;;;;;5003122;28;20049;-76
2023/08/07 13:42:27;;;;;;;6.13;1.38;;;17.70;99.90;;;;;;4991726;28;20404;-77
2023/08/07 13:45:13;;;;;;;5.22;1.75;;;18.10;99.90;;;;;;5004771;28;20041;-77
2023/08/07 13:47:59;;;;;;;7.72;1.88;;;17.90;99.90;;;;;;4971843;28;20441;-74
2023/08/07 13:50:45;;;;;;;6.57;1.75;;;17.90;99.90;;;;;;4998118;28;20049;-73
2023/08/07 13:53:31;;;;;;;5.80;1.85;;;17.60;99.90;;;;;;5003695;28;20033;-75
2023/08/07 13:56:17;;;;;;;4.95;1.80;;;17.40;99.90;;;;;;5016679;28;20045;-75
2023/08/07 13:59:04;;;;;;;7.18;1.67;;;17.20;99.90;;;;;;5026401;28;20037;-75
2023/08/07 14:01:52;;;;;;;8.85;2.78;;;17.20;99.90;;;;;;5005740;28;20045;-73
2023/08/07 14:04:38;;;;;;;6.60;1.70;;;17.00;99.90;;;;;;5019258;28;20103;-74
2023/08/07 14:07:25;;;;;;;8.38;2.65;;;16.80;99.90;;;;;;5018138;28;20408;-73
2023/08/07 14:10:11;;;;;;;6.45;2.03;;;16.70;99.90;;;;;;4992129;28;20033;-73
2023/08/07 14:12:58;;;;;;;11.45;2.42;;;16.70;99.90;;;;;;5033366;28;20075;-73
2023/08/07 14:15:44;;;;;;;7.15;2.65;;;16.40;99.90;;;;;;5007064;28;20171;-73
2023/08/07 14:18:31;;;;;;;10.02;2.53;;;16.20;99.90;;;;;;5023627;28;20084;-74
2023/08/07 14:21:17;;;;;;;8.52;2.38;;;16.10;99.90;;;;;;5006116;28;20103;-74
2023/08/07 14:24:03;;;;;;;6.57;2.40;;;16.20;99.90;;;;;;5023991;28;20052;-74